createdAt,value
2017-01-10T00:00:54.019Z,-1.04
2017-01-10T00:01:54.370Z,-1.05
2017-01-10T00:02:54.326Z,-1.01
2017-01-10T00:03:54.278Z,-1.05
2017-01-10T00:04:53.849Z,-0.98
2017-01-10T00:05:54.192Z,-1.1
2017-01-10T00:06:54.148Z,-1.09
2017-01-10T00:07:54.105Z,-1.04
2017-01-10T00:08:54.065Z,-1.01
2017-01-10T00:09:54.018Z,-1.07
2017-01-10T00:10:53.972Z,-1.05
2017-01-10T00:11:53.931Z,-1.02
2017-01-10T00:12:53.895Z,-1.17
2017-01-10T00:13:53.850Z,-1.09
2017-01-10T00:14:53.802Z,-1.02
2017-01-10T00:15:53.376Z,-1.02
2017-01-10T00:16:53.716Z,-1.02
2017-01-10T00:17:53.680Z,-0.99
2017-01-10T00:18:53.630Z,-1.19
2017-01-10T00:19:53.203Z,-1.07
2017-01-10T00:20:53.156Z,-1.05
2017-01-10T00:21:53.511Z,-1.12
2017-01-10T00:22:53.460Z,-0.98
2017-01-10T00:23:53.415Z,-1.13
2017-01-10T00:24:52.988Z,-1.07
2017-01-10T00:25:53.329Z,-1.04
2017-01-10T00:26:53.294Z,-1.02
2017-01-10T00:27:53.243Z,-1.13
2017-01-10T00:28:53.198Z,-1.1
2017-01-10T00:29:53.156Z,-1.1
2017-01-10T00:30:53.113Z,-1.15
2017-01-10T00:31:53.071Z,-1.02
2017-01-10T00:32:52.643Z,-1.01
2017-01-10T00:33:52.983Z,-0.99
2017-01-10T00:34:52.553Z,-1.02
2017-01-10T00:35:52.895Z,-1.01
2017-01-10T00:36:52.467Z,-1.12
2017-01-10T00:37:52.809Z,-1.07
2017-01-10T00:38:52.769Z,-1.01
2017-01-10T00:39:52.724Z,-1.07
2017-01-10T00:40:52.297Z,-0.98
2017-01-10T00:41:52.634Z,-1.15
2017-01-10T00:42:52.594Z,-1.15
2017-01-10T00:43:52.550Z,-1.13
2017-01-10T00:44:52.510Z,-1.13
2017-01-10T00:45:52.081Z,-1.05
2017-01-10T00:46:52.039Z,-1.07
2017-01-10T00:47:51.996Z,-1.07
2017-01-10T00:48:52.336Z,-1.12
2017-01-10T00:49:51.524Z,-1.1
2017-01-10T00:50:52.250Z,-1.02
2017-01-10T00:51:52.205Z,-1.16
2017-01-10T00:52:52.163Z,-1.09
2017-01-10T00:53:52.120Z,-1.09
2017-01-10T00:54:51.690Z,-1.23
2017-01-10T00:55:52.033Z,-1.15
2017-01-10T00:56:51.993Z,-1.05
2017-01-10T00:57:51.948Z,-1.16
2017-01-10T00:58:51.911Z,-1.07
2017-01-10T00:59:51.475Z,-1.17
2017-01-10T01:00:51.818Z,-1.19
2017-01-10T01:01:51.775Z,-1.17
2017-01-10T01:02:51.743Z,-1.15
2017-01-10T01:03:51.683Z,-1.09
2017-01-10T01:04:51.258Z,-1.1
2017-01-10T01:05:51.210Z,-1.15
2017-01-10T01:06:51.557Z,-1.13
2017-01-10T01:07:51.515Z,-1.2
2017-01-10T01:08:51.471Z,-1.12
2017-01-10T01:09:51.436Z,-1.23
2017-01-10T01:10:51.388Z,-1.19
2017-01-10T01:11:50.960Z,-1.19
2017-01-10T01:12:51.300Z,-1.19
2017-01-10T01:13:50.869Z,-1.22
2017-01-10T01:14:51.214Z,-1.22
2017-01-10T01:15:51.170Z,-1.22
2017-01-10T01:16:51.123Z,-1.2
2017-01-10T01:17:51.080Z,-1.19
2017-01-10T01:18:51.037Z,-1.19
2017-01-10T01:19:50.995Z,-1.19
2017-01-10T01:20:50.569Z,-1.16
2017-01-10T01:21:50.909Z,-1.27
2017-01-10T01:22:50.865Z,-1.19
2017-01-10T01:23:50.826Z,-1.17
2017-01-10T01:24:50.778Z,-1.16
2017-01-10T01:25:50.348Z,-1.19
2017-01-10T01:26:50.304Z,-1.22
2017-01-10T01:27:50.648Z,-1.16
2017-01-10T01:28:50.604Z,-1.15
2017-01-10T01:29:50.564Z,-1.17
2017-01-10T01:30:50.526Z,-1.07
2017-01-10T01:31:50.475Z,-1.16
2017-01-10T01:32:50.448Z,-1.15
2017-01-10T01:33:49.616Z,-1.2
2017-01-10T01:34:50.353Z,-1.17
2017-01-10T01:35:50.301Z,-1.16
2017-01-10T01:36:50.259Z,-1.23
2017-01-10T01:37:50.214Z,-1.13
2017-01-10T01:38:49.788Z,-1.12
2017-01-10T01:39:50.132Z,-1.16
2017-01-10T01:40:49.317Z,-1.16
2017-01-10T01:41:49.664Z,-1.13
2017-01-10T01:42:49.999Z,-1.13
2017-01-10T01:43:49.570Z,-1.17
2017-01-10T01:44:49.914Z,-1.12
2017-01-10T01:45:49.485Z,-1.17
2017-01-10T01:46:49.828Z,-1.1
2017-01-10T01:47:49.012Z,-1.22
2017-01-10T01:48:49.737Z,-1.17
2017-01-10T01:49:49.703Z,-1.17
2017-01-10T01:50:49.652Z,-1.13
2017-01-10T01:51:49.229Z,-1.12
2017-01-10T01:52:49.563Z,-1.25
2017-01-10T01:53:49.141Z,-1.17
2017-01-10T01:54:49.485Z,-1.12
2017-01-10T01:55:49.436Z,-1.17
2017-01-10T01:56:49.009Z,-1.19
2017-01-10T01:57:49.350Z,-1.1
2017-01-10T01:58:49.310Z,-1.1
2017-01-10T01:59:49.264Z,-1.13
2017-01-10T02:00:48.832Z,-1.1
2017-01-10T02:01:49.177Z,-1.17
2017-01-10T02:02:49.131Z,-1.2
2017-01-10T02:03:49.086Z,-1.13
2017-01-10T02:04:49.050Z,-1.16
2017-01-10T02:05:48.616Z,-1.13
2017-01-10T02:06:48.959Z,-1.1
2017-01-10T02:07:48.923Z,-1.22
2017-01-10T02:08:48.495Z,-1.19
2017-01-10T02:09:48.448Z,-1.12
2017-01-10T02:10:48.420Z,-1.19
2017-01-10T02:11:48.744Z,-1.09
2017-01-10T02:12:48.328Z,-1.2
2017-01-10T02:13:48.666Z,-1.2
2017-01-10T02:14:48.611Z,-1.07
2017-01-10T02:15:48.569Z,-1.09
2017-01-10T02:16:48.530Z,-1.13
2017-01-10T02:17:48.483Z,-1.07
2017-01-10T02:18:48.441Z,-1.2
2017-01-10T02:19:48.399Z,-1.12
2017-01-10T02:20:47.968Z,-1.13
2017-01-10T02:21:47.934Z,-1.09
2017-01-10T02:22:48.265Z,-1.17
2017-01-10T02:23:48.234Z,-1.09
2017-01-10T02:24:48.183Z,-1.1
2017-01-10T02:25:47.757Z,-1.15
2017-01-10T02:26:48.094Z,-1.15
2017-01-10T02:27:48.099Z,-1.04
2017-01-10T02:28:47.623Z,-1.07
2017-01-10T02:29:47.605Z,-1.02
2017-01-10T02:30:47.934Z,-1.07
2017-01-10T02:31:47.112Z,-1.1
2017-01-10T02:32:47.835Z,-1.05
2017-01-10T02:33:47.412Z,-1.02
2017-01-10T02:34:47.367Z,-1.13
2017-01-10T02:35:47.709Z,-1.12
2017-01-10T02:36:46.894Z,-1.12
2017-01-10T02:37:47.617Z,-1.13
2017-01-10T02:38:47.197Z,-1.13
2017-01-10T02:39:47.533Z,-1.15
2017-01-10T02:40:47.103Z,-1.15
2017-01-10T02:41:47.445Z,-1.05
2017-01-10T02:42:47.404Z,-1.12
2017-01-10T02:43:47.362Z,-1.19
2017-01-10T02:44:47.325Z,-1.09
2017-01-10T02:45:46.889Z,-1.09
2017-01-10T02:46:47.274Z,-1.12
2017-01-10T02:47:46.803Z,-1.1
2017-01-10T02:48:47.154Z,-1.2
2017-01-10T02:49:47.103Z,-1.16
2017-01-10T02:50:47.055Z,-1.16
2017-01-10T02:51:46.630Z,-1.16
2017-01-10T02:52:46.969Z,-1.05
2017-01-10T02:53:46.935Z,-1.16
2017-01-10T02:54:46.882Z,-1.2
2017-01-10T02:55:46.845Z,-1.15
2017-01-10T02:56:46.795Z,-1.2
2017-01-10T02:57:46.756Z,-1.16
2017-01-10T02:58:46.327Z,-1.16
2017-01-10T02:59:46.283Z,-1.16
2017-01-10T03:00:46.628Z,-1.15
2017-01-10T03:01:46.206Z,-1.13
2017-01-10T03:02:46.543Z,-1.09
2017-01-10T03:03:46.510Z,-1.2
2017-01-10T03:04:46.065Z,-1.13
2017-01-10T03:05:46.030Z,-1.16
2017-01-10T03:06:46.367Z,-1.16
2017-01-10T03:07:46.323Z,-1.09
2017-01-10T03:08:46.276Z,-1.12
2017-01-10T03:09:46.238Z,-1.05
2017-01-10T03:10:45.808Z,-1.15
2017-01-10T03:11:45.780Z,-1.15
2017-01-10T03:12:45.723Z,-1.1
2017-01-10T03:13:45.678Z,-1.13
2017-01-10T03:14:46.020Z,-1.16
2017-01-10T03:15:45.978Z,-1.17
2017-01-10T03:16:45.933Z,-1.1
2017-01-10T03:17:45.888Z,-1.13
2017-01-10T03:18:45.844Z,-1.13
2017-01-10T03:19:45.800Z,-1.09
2017-01-10T03:20:45.761Z,-1.2
2017-01-10T03:21:45.329Z,-1.15
2017-01-10T03:22:45.286Z,-1.13
2017-01-10T03:23:45.632Z,-0.99
2017-01-10T03:24:45.585Z,-1.05
2017-01-10T03:25:45.545Z,-1.1
2017-01-10T03:26:45.113Z,-1.15
2017-01-10T03:27:45.451Z,-1.19
2017-01-10T03:28:45.418Z,-0.99
2017-01-10T03:29:45.370Z,-1.13
2017-01-10T03:30:45.359Z,-1.05
2017-01-10T03:31:45.281Z,-1.16
2017-01-10T03:32:45.236Z,-1.16
2017-01-10T03:33:57.944Z,-1.09
2017-01-10T03:34:45.165Z,-1.04
2017-01-10T03:35:45.138Z,-1.19
2017-01-10T03:36:45.067Z,-1.12
2017-01-10T03:37:44.639Z,-1.1
2017-01-10T03:38:44.980Z,-1.12
2017-01-10T03:39:44.943Z,-1.01
2017-01-10T03:40:44.514Z,-1.16
2017-01-10T03:41:44.851Z,-1.19
2017-01-10T03:42:44.806Z,-0.97
2017-01-10T03:43:44.764Z,-1.12
2017-01-10T03:44:44.340Z,-1.2
2017-01-10T03:45:44.676Z,-1.07
2017-01-10T03:46:44.636Z,-0.98
2017-01-10T03:47:44.589Z,-0.95
2017-01-10T03:48:44.547Z,-1.1
2017-01-10T03:49:44.127Z,-1.1
2017-01-10T03:50:44.460Z,-0.99
2017-01-10T03:51:44.419Z,-1.05
2017-01-10T03:52:44.375Z,-1.12
2017-01-10T03:53:43.948Z,-1.02
2017-01-10T03:54:44.289Z,-1.15
2017-01-10T03:55:44.247Z,-1.17
2017-01-10T03:56:44.202Z,-1.19
2017-01-10T03:57:43.774Z,-1.17
2017-01-10T03:58:44.118Z,-1.15
2017-01-10T03:59:44.079Z,-1.17
2017-01-10T04:02:29.704Z,-1.15
2017-01-10T04:03:29.272Z,-1.23
2017-01-10T04:04:29.618Z,-1.13
2017-01-10T04:05:29.575Z,-1.12
2017-01-10T04:06:29.529Z,-1.13
2017-01-10T04:07:29.099Z,-1.09
2017-01-10T04:08:29.440Z,-1.13
2017-01-10T04:09:29.014Z,-1.05
2017-01-10T04:10:28.968Z,-1.05
2017-01-10T04:11:29.312Z,-1.15
2017-01-10T04:12:29.269Z,-1.09
2017-01-10T04:13:29.225Z,-1.13
2017-01-10T04:14:29.183Z,-1.15
2017-01-10T04:15:29.141Z,-1.1
2017-01-10T04:16:28.709Z,-1.05
2017-01-10T04:17:29.050Z,-1.07
2017-01-10T04:18:28.626Z,-1.02
2017-01-10T04:19:28.586Z,-0.99
2017-01-10T04:20:28.926Z,-1.12
2017-01-10T04:21:28.878Z,-1.1
2017-01-10T04:22:28.837Z,-1.07
2017-01-10T04:23:28.794Z,-1.07
2017-01-10T04:24:27.989Z,-0.99
2017-01-10T04:25:28.706Z,-1.09
2017-01-10T04:26:28.663Z,-1.01
2017-01-10T04:27:28.235Z,-1.09
2017-01-10T04:28:28.575Z,-1.13
2017-01-10T04:29:28.535Z,-1.12
2017-01-10T04:30:28.497Z,-1.09
2017-01-10T04:31:28.065Z,-1.1
2017-01-10T04:32:28.403Z,-1.09
2017-01-10T04:33:28.358Z,-1.13
2017-01-10T04:34:28.318Z,-1.13
2017-01-10T04:35:27.890Z,-1.17
2017-01-10T04:36:28.230Z,-1.07
2017-01-10T04:37:27.801Z,-1.07
2017-01-10T04:38:27.756Z,-1.12
2017-01-10T04:39:28.101Z,-1.04
2017-01-10T04:40:28.091Z,-1.16
2017-01-10T04:41:28.012Z,-1.19
2017-01-10T04:42:27.966Z,-1.12
2017-01-10T04:43:27.937Z,-1.19
2017-01-10T04:44:27.890Z,-1.12
2017-01-10T04:45:27.847Z,-1.16
2017-01-10T04:46:27.416Z,-1.19
2017-01-10T04:47:27.370Z,-1.1
2017-01-10T04:48:27.714Z,-1.1
2017-01-10T04:49:27.668Z,-1.22
2017-01-10T04:50:27.621Z,-1.17
2017-01-10T04:51:27.580Z,-1.3
2017-01-10T04:52:27.537Z,-1.27
2017-01-10T04:53:27.494Z,-1.31
2017-01-10T04:54:27.066Z,-1.38
2017-01-10T04:55:27.029Z,-1.38
2017-01-10T04:56:27.363Z,-1.4
2017-01-10T04:57:26.549Z,-1.46
2017-01-10T04:58:26.891Z,-1.48
2017-01-10T04:59:27.235Z,-1.55
2017-01-10T05:00:27.190Z,-1.49
2017-01-10T05:01:26.767Z,-1.58
2017-01-10T05:02:27.104Z,-1.61
2017-01-10T05:03:26.674Z,-1.61
2017-01-10T05:04:27.016Z,-1.74
2017-01-10T05:05:26.970Z,-1.62
2017-01-10T05:06:26.554Z,-1.76
2017-01-10T05:07:26.889Z,-1.73
2017-01-10T05:08:26.850Z,-1.67
2017-01-10T05:09:26.797Z,-1.67
2017-01-10T05:10:26.369Z,-1.79
2017-01-10T05:11:26.713Z,-1.73
2017-01-10T05:12:26.668Z,-1.8
2017-01-10T05:13:26.241Z,-1.76
2017-01-10T05:14:26.578Z,-1.77
2017-01-10T05:15:26.562Z,-1.8
2017-01-10T05:16:26.494Z,-1.82
2017-01-10T05:17:26.454Z,-1.8
2017-01-10T05:18:26.408Z,-1.8
2017-01-10T05:19:26.362Z,-1.82
2017-01-10T05:20:25.546Z,-1.84
2017-01-10T05:21:26.279Z,-1.8
2017-01-10T05:22:26.233Z,-1.79
2017-01-10T05:23:26.187Z,-1.84
2017-01-10T05:24:26.147Z,-1.77
2017-01-10T05:25:26.107Z,-1.76
2017-01-10T05:26:26.055Z,-1.8
2017-01-10T05:27:26.016Z,-1.84
2017-01-10T05:28:25.583Z,-1.82
2017-01-10T05:29:25.928Z,-1.88
2017-01-10T05:30:25.885Z,-1.77
2017-01-10T05:31:25.453Z,-1.92
2017-01-10T05:32:25.802Z,-1.95
2017-01-10T05:33:25.367Z,-1.88
2017-01-10T05:34:25.712Z,-1.91
2017-01-10T05:35:25.662Z,-1.94
2017-01-10T05:36:25.237Z,-1.85
2017-01-10T05:37:25.581Z,-1.88
2017-01-10T05:38:25.148Z,-1.91
2017-01-10T05:39:25.492Z,-1.8
2017-01-10T05:40:25.446Z,-1.9
2017-01-10T05:41:25.427Z,-1.82
2017-01-10T05:42:25.359Z,-1.87
2017-01-10T05:43:25.318Z,-1.88
2017-01-10T05:44:25.301Z,-1.92
2017-01-10T05:45:25.233Z,-1.82
2017-01-10T05:46:24.800Z,-1.9
2017-01-10T05:47:25.137Z,-1.95
2017-01-10T05:48:25.099Z,-1.92
2017-01-10T05:49:25.053Z,-1.92
2017-01-10T05:50:24.628Z,-2
2017-01-10T05:51:24.965Z,-2
2017-01-10T05:52:24.532Z,-2.05
2017-01-10T05:53:24.497Z,-1.97
2017-01-10T05:54:24.449Z,-2.05
2017-01-10T05:55:24.019Z,-1.97
2017-01-10T05:56:24.751Z,-1.95
2017-01-10T05:57:24.313Z,-2.13
2017-01-10T05:58:24.662Z,-2.08
2017-01-10T05:59:24.230Z,-2.1
2017-01-10T06:00:24.572Z,-2.02
2017-01-10T06:01:24.530Z,-2.06
2017-01-10T06:02:24.483Z,-2.08
2017-01-10T06:03:24.467Z,-1.98
2017-01-10T06:04:24.397Z,-2.13
2017-01-10T06:05:24.354Z,-2.06
2017-01-10T06:06:24.312Z,-2.13
2017-01-10T06:07:24.264Z,-2.09
2017-01-10T06:08:24.220Z,-2.05
2017-01-10T06:09:24.176Z,-2.12
2017-01-10T06:10:24.133Z,-2.1
2017-01-10T06:11:24.090Z,-2.09
2017-01-10T06:12:24.047Z,-2.06
2017-01-10T06:13:24.001Z,-2.08
2017-01-10T06:14:23.956Z,-2.05
2017-01-10T06:15:23.922Z,-2.1
2017-01-10T06:16:23.486Z,-2.08
2017-01-10T06:17:23.825Z,-2
2017-01-10T06:18:23.779Z,-2.06
2017-01-10T06:19:23.760Z,-1.98
2017-01-10T06:20:23.694Z,-2.02
2017-01-10T06:21:23.651Z,-1.97
2017-01-10T06:22:22.834Z,-2.1
2017-01-10T06:23:23.566Z,-2.06
2017-01-10T06:24:23.521Z,-2.1
2017-01-10T06:25:23.478Z,-2.05
2017-01-10T06:26:23.432Z,-2.02
2017-01-10T06:27:22.616Z,-1.97
2017-01-10T06:28:23.341Z,-2
2017-01-10T06:29:23.306Z,-2.03
2017-01-10T06:30:23.255Z,-2.1
2017-01-10T06:31:23.213Z,-2.06
2017-01-10T06:32:23.168Z,-2.08
2017-01-10T06:33:23.123Z,-2.1
2017-01-10T06:34:22.694Z,-2.16
2017-01-10T06:35:23.037Z,-2.1
2017-01-10T06:36:22.993Z,-2.09
2017-01-10T06:37:22.950Z,-2.18
2017-01-10T06:38:22.906Z,-2.16
2017-01-10T06:39:22.859Z,-2.16
2017-01-10T06:40:22.819Z,-2.18
2017-01-10T06:41:22.780Z,-2.16
2017-01-10T06:42:22.727Z,-2.18
2017-01-10T06:43:22.309Z,-2.13
2017-01-10T06:44:22.272Z,-2.15
2017-01-10T06:45:22.597Z,-2.16
2017-01-10T06:46:22.551Z,-2.18
2017-01-10T06:47:22.513Z,-2.21
2017-01-10T06:48:22.082Z,-2.18
2017-01-10T06:49:22.419Z,-2.18
2017-01-10T06:50:22.374Z,-2.15
2017-01-10T06:51:22.338Z,-2.24
2017-01-10T06:52:22.297Z,-2.24
2017-01-10T06:53:22.293Z,-2.13
2017-01-10T06:54:22.201Z,-2.1
2017-01-10T06:55:22.158Z,-2.16
2017-01-10T06:56:21.727Z,-2.18
2017-01-10T06:57:22.068Z,-2.12
2017-01-10T06:58:22.027Z,-2.16
2017-01-10T06:59:21.596Z,-2.13
2017-01-10T07:00:21.559Z,-2.12
2017-01-10T07:01:21.893Z,-2.1
2017-01-10T07:02:21.858Z,-2.1
2017-01-10T07:03:21.805Z,-2.1
2017-01-10T07:04:21.378Z,-2.12
2017-01-10T07:05:21.338Z,-2.16
2017-01-10T07:06:21.291Z,-2.24
2017-01-10T07:07:21.246Z,-2.2
2017-01-10T07:08:21.588Z,-2.16
2017-01-10T07:09:21.160Z,-2.24
2017-01-10T07:10:21.503Z,-2.2
2017-01-10T07:11:21.458Z,-2.27
2017-01-10T07:12:21.028Z,-2.34
2017-01-10T07:13:21.378Z,-2.2
2017-01-10T07:14:20.554Z,-2.27
2017-01-10T07:15:21.305Z,-2.26
2017-01-10T07:16:21.235Z,-2.27
2017-01-10T07:17:21.193Z,-2.34
2017-01-10T07:18:21.177Z,-2.26
2017-01-10T07:19:21.108Z,-2.26
2017-01-10T07:20:21.068Z,-2.2
2017-01-10T07:21:21.017Z,-2.09
2017-01-10T07:22:20.592Z,-1.88
2017-01-10T07:23:20.540Z,-1.69
2017-01-10T07:24:20.885Z,-1.28
2017-01-10T07:25:20.841Z,-1.07
2017-01-10T07:26:20.795Z,-0.83
2017-01-10T07:27:20.757Z,-0.7
2017-01-10T07:28:20.710Z,-0.82
2017-01-10T07:29:20.665Z,-0.95
2017-01-10T07:30:20.236Z,-0.89
2017-01-10T07:31:20.192Z,-0.89
2017-01-10T07:32:20.534Z,-0.75
2017-01-10T07:33:20.499Z,-0.64
2017-01-10T07:34:20.064Z,-0.28
2017-01-10T07:35:20.400Z,0.14
2017-01-10T07:36:20.362Z,0.44
2017-01-10T07:37:19.933Z,0.87
2017-01-10T07:38:19.887Z,1.05
2017-01-10T07:39:20.231Z,1.09
2017-01-10T07:40:19.801Z,0.93
2017-01-10T07:41:20.147Z,0.65
2017-01-10T07:42:20.105Z,0.41
2017-01-10T07:43:20.070Z,0.15
2017-01-10T07:44:20.019Z,0.1
2017-01-10T07:45:19.589Z,-0.08
2017-01-10T07:46:19.932Z,-0.23
2017-01-10T07:47:19.501Z,-0.4
2017-01-10T07:48:19.846Z,-0.52
2017-01-10T07:49:19.801Z,-0.46
2017-01-10T07:50:19.383Z,-0.57
2017-01-10T07:51:19.718Z,-0.61
2017-01-10T07:52:19.678Z,-0.58
2017-01-10T07:53:19.254Z,-0.51
2017-01-10T07:54:19.589Z,-0.6
2017-01-10T07:55:19.158Z,-0.75
2017-01-10T07:56:19.501Z,-0.79
2017-01-10T07:57:19.457Z,-0.79
2017-01-10T07:58:19.417Z,-0.85
2017-01-10T07:59:19.375Z,-0.86
2017-01-10T08:00:18.944Z,-0.89
2017-01-10T08:01:19.287Z,-0.91
2017-01-10T08:02:19.254Z,-0.94
2017-01-10T08:03:19.205Z,-0.99
2017-01-10T08:04:18.779Z,-0.91
2017-01-10T08:05:18.735Z,-0.79
2017-01-10T08:06:19.075Z,-0.8
2017-01-10T08:07:19.030Z,-0.67
2017-01-10T08:08:18.602Z,-0.73
2017-01-10T08:09:18.948Z,-0.65
2017-01-10T08:10:18.902Z,-0.6
2017-01-10T08:11:18.860Z,-0.61
2017-01-10T08:12:18.819Z,-0.67
2017-01-10T08:13:18.773Z,-0.73
2017-01-10T08:14:18.730Z,-0.91
2017-01-10T08:15:18.690Z,-0.99
2017-01-10T08:16:18.646Z,-1.05
2017-01-10T08:17:18.604Z,-1.16
2017-01-10T08:18:18.559Z,-1.17
2017-01-10T08:19:18.127Z,-1.35
2017-01-10T08:20:18.472Z,-1.23
2017-01-10T08:21:18.426Z,-1.27
2017-01-10T08:22:18.383Z,-1.27
2017-01-10T08:23:18.346Z,-1.27
2017-01-10T08:24:18.301Z,-1.38
2017-01-10T08:25:17.869Z,-1.46
2017-01-10T08:26:18.212Z,-1.38
2017-01-10T08:27:18.173Z,-1.37
2017-01-10T08:28:18.128Z,-1.34
2017-01-10T08:29:18.083Z,-1.3
2017-01-10T08:30:18.041Z,-1.4
2017-01-10T08:31:17.620Z,-1.3
2017-01-10T08:32:17.959Z,-1.25
2017-01-10T08:33:17.531Z,-1.23
2017-01-10T08:34:17.483Z,-1.27
2017-01-10T08:35:17.818Z,-1.27
2017-01-10T08:36:17.786Z,-1.22
2017-01-10T08:37:17.354Z,-1.28
2017-01-10T08:38:17.695Z,-1.16
2017-01-10T08:39:17.652Z,-1.17
2017-01-10T08:40:16.839Z,-1.12
2017-01-10T08:41:17.563Z,-1.17
2017-01-10T08:42:17.519Z,-1.19
2017-01-10T08:43:17.490Z,-1.2
2017-01-10T08:44:17.048Z,-1.17
2017-01-10T08:45:17.391Z,-1.17
2017-01-10T08:46:17.347Z,-1.22
2017-01-10T08:47:17.312Z,-1.19
2017-01-10T08:48:17.258Z,-1.12
2017-01-10T08:49:17.226Z,-1.2
2017-01-10T08:50:16.793Z,-0.98
2017-01-10T08:51:16.746Z,-1.05
2017-01-10T08:52:17.088Z,-0.99
2017-01-10T08:53:17.044Z,-0.83
2017-01-10T08:54:17.003Z,-0.83
2017-01-10T08:55:16.958Z,-0.8
2017-01-10T08:56:16.916Z,-0.67
2017-01-10T08:57:16.878Z,-0.65
2017-01-10T08:58:16.826Z,-0.64
2017-01-10T08:59:16.782Z,-0.58
2017-01-10T09:00:16.747Z,-0.58
2017-01-10T09:01:16.698Z,-0.58
2017-01-10T09:02:16.270Z,-0.58
2017-01-10T09:03:16.616Z,-0.58
2017-01-10T09:04:16.182Z,-0.61
2017-01-10T09:05:16.529Z,-0.55
2017-01-10T09:06:16.487Z,-0.58
2017-01-10T09:07:16.056Z,-0.57
2017-01-10T09:08:16.402Z,-0.57
2017-01-10T09:09:15.973Z,-0.57
2017-01-10T09:10:16.312Z,-0.64
2017-01-10T09:11:16.267Z,-0.58
2017-01-10T09:12:16.228Z,-0.6
2017-01-10T09:13:16.181Z,-0.52
2017-01-10T09:14:16.136Z,-0.42
2017-01-10T09:15:16.096Z,-0.39
2017-01-10T09:16:16.051Z,-0.39
2017-01-10T09:17:15.624Z,-0.4
2017-01-10T09:18:15.968Z,-0.4
2017-01-10T09:19:15.541Z,-0.42
2017-01-10T09:20:15.886Z,-0.26
2017-01-10T09:21:15.840Z,-0.19
2017-01-10T09:22:15.796Z,-0.16
2017-01-10T09:23:15.767Z,-0.1
2017-01-10T09:24:15.713Z,0
2017-01-10T09:25:15.670Z,0.03
2017-01-10T09:26:15.239Z,0.08
2017-01-10T09:27:15.582Z,0.17
2017-01-10T09:28:15.546Z,0.14
2017-01-10T09:29:15.504Z,0.11
2017-01-10T09:30:15.068Z,0.1
2017-01-10T09:31:15.412Z,0.23
2017-01-10T09:32:15.371Z,0.21
2017-01-10T09:33:15.331Z,0.14
2017-01-10T09:34:15.288Z,0.2
2017-01-10T09:35:15.256Z,0.28
2017-01-10T09:36:15.199Z,0.15
2017-01-10T09:37:15.158Z,0.08
2017-01-10T09:38:14.730Z,0.03
2017-01-10T09:39:15.070Z,0.04
2017-01-10T09:40:15.400Z,-0.05
2017-01-10T09:41:14.984Z,0.02
2017-01-10T09:42:14.565Z,-0.05
2017-01-10T09:43:14.917Z,-0.16
2017-01-10T09:44:14.866Z,-0.14
2017-01-10T09:45:14.823Z,-0.1
2017-01-10T09:46:14.787Z,-0.05
2017-01-10T09:47:14.731Z,-0.01
2017-01-10T09:48:14.315Z,0.18
2017-01-10T09:49:14.648Z,0.1
2017-01-10T09:50:14.609Z,0.24
2017-01-10T09:51:14.562Z,0.36
2017-01-10T09:52:14.533Z,0.47
2017-01-10T09:53:14.477Z,0.38
2017-01-10T09:54:14.440Z,0.49
2017-01-10T09:55:14.393Z,0.49
2017-01-10T09:56:14.352Z,0.53
2017-01-10T09:57:14.317Z,0.47
2017-01-10T09:58:13.880Z,0.6
2017-01-10T09:59:14.220Z,0.53
2017-01-10T10:00:14.180Z,0.58
2017-01-10T10:01:14.147Z,0.55
2017-01-10T10:02:14.102Z,0.57
2017-01-10T10:03:14.056Z,0.44
2017-01-10T10:04:13.626Z,0.39
2017-01-10T10:05:13.968Z,0.21
2017-01-10T10:06:13.552Z,0.15
2017-01-10T10:07:13.883Z,0.04
2017-01-10T10:08:13.849Z,0.03
2017-01-10T10:09:13.798Z,0.1
2017-01-10T10:10:13.762Z,0.07
2017-01-10T10:11:13.727Z,-0.04
2017-01-10T10:12:13.287Z,-0.11
2017-01-10T10:13:13.248Z,-0.16
2017-01-10T10:14:13.585Z,-0.18
2017-01-10T10:15:13.162Z,-0.29
2017-01-10T10:16:13.502Z,-0.26
2017-01-10T10:17:13.458Z,-0.31
2017-01-10T10:18:13.422Z,-0.28
2017-01-10T10:19:13.382Z,-0.28
2017-01-10T10:20:12.947Z,-0.25
2017-01-10T10:21:13.289Z,-0.25
2017-01-10T10:22:13.250Z,-0.31
2017-01-10T10:23:13.208Z,-0.37
2017-01-10T10:24:13.165Z,-0.44
2017-01-10T10:25:13.122Z,-0.49
2017-01-10T10:26:13.082Z,-0.42
2017-01-10T10:27:12.652Z,-0.4
2017-01-10T10:28:12.607Z,-0.26
2017-01-10T10:29:12.564Z,-0.31
2017-01-10T10:30:12.521Z,-0.33
2017-01-10T10:31:12.866Z,-0.23
2017-01-10T10:32:12.824Z,-0.28
2017-01-10T10:33:12.801Z,-0.29
2017-01-10T10:34:12.745Z,-0.26
2017-01-10T10:35:12.706Z,-0.23
2017-01-10T10:36:12.651Z,-0.19
2017-01-10T10:37:12.226Z,-0.22
2017-01-10T10:38:12.563Z,-0.03
2017-01-10T10:39:12.518Z,0.07
2017-01-10T10:40:12.476Z,0.18
2017-01-10T10:41:12.053Z,0.21
2017-01-10T10:42:12.388Z,0.28
2017-01-10T10:43:12.346Z,0.32
2017-01-10T10:44:12.310Z,0.47
2017-01-10T10:45:12.261Z,0.55
2017-01-10T10:46:11.830Z,0.58
2017-01-10T10:47:12.177Z,0.75
2017-01-10T10:48:12.132Z,0.88
2017-01-10T10:49:12.090Z,0.9
2017-01-10T10:50:12.058Z,0.93
2017-01-10T10:51:12.005Z,1.02
2017-01-10T10:52:11.577Z,1.11
2017-01-10T10:53:11.927Z,1.18
2017-01-10T10:54:11.882Z,1.08
2017-01-10T10:55:11.834Z,1.05
2017-01-10T10:56:11.790Z,1.06
2017-01-10T10:57:11.758Z,1.02
2017-01-10T10:58:11.707Z,0.96
2017-01-10T10:59:11.665Z,0.75
2017-01-10T11:00:11.621Z,0.65
2017-01-10T11:01:11.192Z,0.5
2017-01-10T11:02:11.537Z,0.39
2017-01-10T11:03:11.495Z,0.36
2017-01-10T11:04:11.471Z,0.38
2017-01-10T11:05:11.410Z,0.39
2017-01-10T11:06:11.367Z,0.46
2017-01-10T11:07:11.326Z,0.49
2017-01-10T11:08:11.282Z,0.53
2017-01-10T11:09:11.243Z,0.62
2017-01-10T11:10:10.814Z,0.65
2017-01-10T11:11:10.770Z,0.72
2017-01-10T11:12:11.114Z,0.68
2017-01-10T11:13:10.694Z,0.65
2017-01-10T11:14:10.644Z,0.58
2017-01-10T11:15:11.814Z,0.51
2017-01-10T11:16:11.107Z,0.49
2017-01-10T11:17:10.518Z,0.49
2017-01-10T11:18:10.087Z,0.49
2017-01-10T11:19:10.822Z,0.44
2017-01-10T11:20:10.774Z,0.47
2017-01-10T11:21:10.349Z,0.41
2017-01-10T11:22:10.688Z,0.38
2017-01-10T11:23:10.262Z,0.26
2017-01-10T11:24:10.602Z,0.24
2017-01-10T11:25:10.189Z,0.23
2017-01-10T11:26:10.522Z,0.23
2017-01-10T11:27:10.099Z,0.2
2017-01-10T11:28:10.055Z,0.23
2017-01-10T11:29:10.394Z,0.24
2017-01-10T11:30:10.365Z,0.21
2017-01-10T11:31:10.316Z,0.1
2017-01-10T11:32:10.270Z,0.23
2017-01-10T11:33:10.224Z,0.15
2017-01-10T11:34:09.801Z,0.13
2017-01-10T11:35:10.140Z,0.02
2017-01-10T11:36:10.099Z,0.04
2017-01-10T11:37:10.052Z,0.07
2017-01-10T11:38:10.016Z,0.02
2017-01-10T11:39:09.969Z,0.1
2017-01-10T11:40:09.930Z,0.07
2017-01-10T11:41:09.889Z,0.02
2017-01-10T11:42:09.457Z,-0.04
2017-01-10T11:43:09.801Z,0.02
2017-01-10T11:44:09.757Z,-0.1
2017-01-10T11:45:09.714Z,-0.07
2017-01-10T11:46:09.288Z,-0.14
2017-01-10T11:47:09.636Z,-0.22
2017-01-10T11:48:09.207Z,-0.31
2017-01-10T11:49:08.778Z,-0.26
2017-01-10T11:50:09.511Z,-0.31
2017-01-10T11:51:09.461Z,-0.36
2017-01-10T11:52:09.419Z,-0.39
2017-01-10T11:53:08.999Z,-0.33
2017-01-10T11:54:09.348Z,-0.4
2017-01-10T11:55:09.294Z,-0.36
2017-01-10T11:56:09.253Z,-0.34
2017-01-10T11:57:08.828Z,-0.42
2017-01-10T11:58:09.176Z,-0.39
2017-01-10T11:59:09.130Z,-0.37
2017-01-10T12:00:08.696Z,-0.42
2017-01-10T12:01:08.656Z,-0.44
2017-01-10T12:02:08.991Z,-0.42
2017-01-10T12:03:08.565Z,-0.28
2017-01-10T12:04:08.524Z,-0.31
2017-01-10T12:05:08.680Z,-0.29
2017-01-10T12:06:08.815Z,-0.33
2017-01-10T12:07:08.784Z,-0.37
2017-01-10T12:08:08.735Z,-0.37
2017-01-10T12:09:08.303Z,-0.36
2017-01-10T12:10:08.647Z,-0.36
2017-01-10T12:11:08.608Z,-0.29
2017-01-10T12:12:08.562Z,-0.19
2017-01-10T12:13:08.137Z,-0.22
2017-01-10T12:14:08.473Z,-0.15
2017-01-10T12:15:08.439Z,-0.08
2017-01-10T12:16:08.393Z,-0.14
2017-01-10T12:17:08.348Z,-0.1
2017-01-10T12:18:08.310Z,-0.03
2017-01-10T12:19:08.260Z,-0.15
2017-01-10T12:20:07.833Z,-0.31
2017-01-10T12:21:08.175Z,-0.19
2017-01-10T12:22:08.137Z,-0.26
2017-01-10T12:23:08.092Z,-0.21
2017-01-10T12:24:07.662Z,-0.31
2017-01-10T12:25:08.005Z,-0.31
2017-01-10T12:26:07.577Z,-0.28
2017-01-10T12:27:07.917Z,-0.25
2017-01-10T12:28:07.897Z,-0.19
2017-01-10T12:29:07.829Z,-0.25
2017-01-10T12:30:07.406Z,-0.25
2017-01-10T12:31:07.747Z,-0.22
2017-01-10T12:32:07.704Z,-0.1
2017-01-10T12:33:07.662Z,-0.08
2017-01-10T12:34:07.615Z,-0.08
2017-01-10T12:35:07.186Z,-0.01
2017-01-10T12:36:07.539Z,-0.08
2017-01-10T12:37:07.489Z,-0.07
2017-01-10T12:38:07.447Z,-0.16
2017-01-10T12:39:07.405Z,-0.18
2017-01-10T12:40:06.977Z,-0.05
2017-01-10T12:41:07.317Z,-0.08
2017-01-10T12:42:07.276Z,-0.03
2017-01-10T12:43:07.234Z,-0.04
2017-01-10T12:44:07.191Z,-0.21
2017-01-10T12:45:07.147Z,-0.14
2017-01-10T12:46:07.103Z,-0.07
2017-01-10T12:47:06.674Z,-0.15
2017-01-10T12:48:07.054Z,-0.19
2017-01-10T12:49:06.975Z,-0.21
2017-01-10T12:50:06.932Z,-0.26
2017-01-10T12:51:06.506Z,-0.26
2017-01-10T12:52:06.465Z,-0.29
2017-01-10T12:53:06.805Z,-0.29
2017-01-10T12:54:06.760Z,-0.18
2017-01-10T12:55:06.342Z,-0.25
2017-01-10T12:56:06.675Z,-0.23
2017-01-10T12:57:06.635Z,-0.14
2017-01-10T12:58:06.590Z,-0.18
2017-01-10T12:59:06.548Z,-0.15
2017-01-10T13:00:06.507Z,-0.15
2017-01-10T13:01:06.463Z,-0.18